sensor_id;sensor_type;location;lat;lon;timestamp;P1;durP1;ratioP1;P2;durP2;ratioP2
51724;SDS011;37801;53.224;6.552;2023-09-12T00:02:24;30.88;;;24.08;;
51724;SDS011;37801;53.224;6.552;2023-09-12T00:05:10;33.60;;;24.95;;
51724;SDS011;37801;53.224;6.552;2023-09-12T00:07:56;32.45;;;25.48;;
51724;SDS011;37801;53.224;6.552;2023-09-12T00:10:42;32.97;;;24.70;;
51724;SDS011;37801;53.224;6.552;2023-09-12T00:13:29;29.90;;;23.42;;
51724;SDS011;37801;53.224;6.552;2023-09-12T00:16:15;33.28;;;24.05;;
51724;SDS011;37801;53.224;6.552;2023-09-12T00:19:01;30.52;;;24.27;;
51724;SDS011;37801;53.224;6.552;2023-09-12T00:21:47;32.63;;;25.02;;
51724;SDS011;37801;53.224;6.552;2023-09-12T00:24:33;36.45;;;26.55;;
51724;SDS011;37801;53.224;6.552;2023-09-12T00:27:19;33.28;;;26.15;;
51724;SDS011;37801;53.224;6.552;2023-09-12T00:30:05;31.75;;;23.83;;
51724;SDS011;37801;53.224;6.552;2023-09-12T00:32:51;30.70;;;25.30;;
51724;SDS011;37801;53.224;6.552;2023-09-12T00:35:38;32.08;;;25.05;;
51724;SDS011;37801;53.224;6.552;2023-09-12T00:38:24;31.30;;;25.35;;
51724;SDS011;37801;53.224;6.552;2023-09-12T00:41:10;33.90;;;25.05;;
51724;SDS011;37801;53.224;6.552;2023-09-12T00:43:56;31.63;;;24.67;;
51724;SDS011;37801;53.224;6.552;2023-09-12T00:46:42;34.50;;;24.48;;
51724;SDS011;37801;53.224;6.552;2023-09-12T00:49:29;29.92;;;24.55;;
51724;SDS011;37801;53.224;6.552;2023-09-12T00:52:16;37.90;;;25.98;;
51724;SDS011;37801;53.224;6.552;2023-09-12T00:55:03;32.95;;;25.83;;
51724;SDS011;37801;53.224;6.552;2023-09-12T00:57:49;30.80;;;23.80;;
51724;SDS011;37801;53.224;6.552;2023-09-12T01:00:36;31.38;;;24.75;;
51724;SDS011;37801;53.224;6.552;2023-09-12T01:03:22;31.05;;;25.55;;
51724;SDS011;37801;53.224;6.552;2023-09-12T01:06:08;31.08;;;24.58;;
51724;SDS011;37801;53.224;6.552;2023-09-12T01:08:55;32.13;;;25.05;;
51724;SDS011;37801;53.224;6.552;2023-09-12T01:11:41;33.35;;;25.75;;
51724;SDS011;37801;53.224;6.552;2023-09-12T01:14:27;35.42;;;25.40;;
51724;SDS011;37801;53.224;6.552;2023-09-12T01:17:13;31.38;;;25.08;;
51724;SDS011;37801;53.224;6.552;2023-09-12T01:20:00;32.95;;;25.65;;
51724;SDS011;37801;53.224;6.552;2023-09-12T01:22:52;34.47;;;26.52;;
51724;SDS011;37801;53.224;6.552;2023-09-12T01:28:44;32.38;;;24.77;;
51724;SDS011;37801;53.224;6.552;2023-09-12T01:31:31;32.50;;;26.40;;
51724;SDS011;37801;53.224;6.552;2023-09-12T01:34:17;31.60;;;24.33;;
51724;SDS011;37801;53.224;6.552;2023-09-12T01:37:03;30.55;;;25.50;;
51724;SDS011;37801;53.224;6.552;2023-09-12T01:39:49;33.05;;;25.73;;
51724;SDS011;37801;53.224;6.552;2023-09-12T01:42:42;31.30;;;26.17;;
51724;SDS011;37801;53.224;6.552;2023-09-12T01:48:17;28.92;;;24.00;;
51724;SDS011;37801;53.224;6.552;2023-09-12T01:51:04;33.83;;;25.73;;
51724;SDS011;37801;53.224;6.552;2023-09-12T01:53:51;32.47;;;26.80;;
51724;SDS011;37801;53.224;6.552;2023-09-12T01:56:38;36.58;;;28.17;;
51724;SDS011;37801;53.224;6.552;2023-09-12T01:59:24;36.35;;;28.55;;
51724;SDS011;37801;53.224;6.552;2023-09-12T02:02:10;35.53;;;27.85;;
51724;SDS011;37801;53.224;6.552;2023-09-12T02:05:13;38.03;;;29.95;;
51724;SDS011;37801;53.224;6.552;2023-09-12T02:08:00;36.30;;;28.98;;
51724;SDS011;37801;53.224;6.552;2023-09-12T02:10:47;36.38;;;27.73;;
51724;SDS011;37801;53.224;6.552;2023-09-12T02:13:33;33.45;;;28.23;;
51724;SDS011;37801;53.224;6.552;2023-09-12T02:16:19;35.95;;;27.65;;
51724;SDS011;37801;53.224;6.552;2023-09-12T02:19:05;36.33;;;27.73;;
51724;SDS011;37801;53.224;6.552;2023-09-12T02:21:51;37.47;;;27.52;;
51724;SDS011;37801;53.224;6.552;2023-09-12T02:24:37;33.70;;;26.45;;
51724;SDS011;37801;53.224;6.552;2023-09-12T02:27:23;33.35;;;27.42;;
51724;SDS011;37801;53.224;6.552;2023-09-12T02:30:10;37.75;;;27.63;;
51724;SDS011;37801;53.224;6.552;2023-09-12T02:32:56;36.35;;;27.52;;
51724;SDS011;37801;53.224;6.552;2023-09-12T02:35:42;35.95;;;28.95;;
51724;SDS011;37801;53.224;6.552;2023-09-12T02:38:28;39.75;;;28.65;;
51724;SDS011;37801;53.224;6.552;2023-09-12T02:41:14;36.00;;;28.38;;
51724;SDS011;37801;53.224;6.552;2023-09-12T02:43:40;36.58;;;29.00;;
51724;SDS011;37801;53.224;6.552;2023-09-12T02:46:06;36.97;;;29.65;;
51724;SDS011;37801;53.224;6.552;2023-09-12T02:48:32;39.97;;;30.58;;
51724;SDS011;37801;53.224;6.552;2023-09-12T02:50:58;40.35;;;30.33;;
51724;SDS011;37801;53.224;6.552;2023-09-12T02:53:25;41.17;;;30.80;;
51724;SDS011;37801;53.224;6.552;2023-09-12T02:55:51;37.72;;;29.92;;
51724;SDS011;37801;53.224;6.552;2023-09-12T02:58:19;38.05;;;29.45;;
51724;SDS011;37801;53.224;6.552;2023-09-12T03:00:45;43.13;;;31.20;;
51724;SDS011;37801;53.224;6.552;2023-09-12T03:03:15;39.80;;;29.88;;
51724;SDS011;37801;53.224;6.552;2023-09-12T03:05:42;37.65;;;29.40;;
51724;SDS011;37801;53.224;6.552;2023-09-12T03:08:08;39.20;;;29.10;;
51724;SDS011;37801;53.224;6.552;2023-09-12T03:10:34;39.78;;;30.42;;
51724;SDS011;37801;53.224;6.552;2023-09-12T03:13:00;41.78;;;30.48;;
51724;SDS011;37801;53.224;6.552;2023-09-12T03:15:29;38.78;;;28.30;;
51724;SDS011;37801;53.224;6.552;2023-09-12T03:17:55;39.97;;;29.92;;
51724;SDS011;37801;53.224;6.552;2023-09-12T03:20:21;38.42;;;29.55;;
51724;SDS011;37801;53.224;6.552;2023-09-12T03:22:48;39.00;;;28.77;;
51724;SDS011;37801;53.224;6.552;2023-09-12T03:25:14;39.25;;;28.20;;
51724;SDS011;37801;53.224;6.552;2023-09-12T03:27:40;41.97;;;29.92;;
51724;SDS011;37801;53.224;6.552;2023-09-12T03:30:06;39.35;;;29.40;;
51724;SDS011;37801;53.224;6.552;2023-09-12T03:32:33;39.50;;;28.83;;
51724;SDS011;37801;53.224;6.552;2023-09-12T03:34:59;38.47;;;29.30;;
51724;SDS011;37801;53.224;6.552;2023-09-12T03:37:25;42.33;;;28.30;;
51724;SDS011;37801;53.224;6.552;2023-09-12T03:39:53;39.20;;;28.58;;
51724;SDS011;37801;53.224;6.552;2023-09-12T03:42:19;36.38;;;26.75;;
51724;SDS011;37801;53.224;6.552;2023-09-12T03:44:46;34.30;;;26.45;;
51724;SDS011;37801;53.224;6.552;2023-09-12T03:47:12;33.72;;;25.98;;
51724;SDS011;37801;53.224;6.552;2023-09-12T03:49:38;38.08;;;26.13;;
51724;SDS011;37801;53.224;6.552;2023-09-12T03:52:04;35.00;;;25.92;;
51724;SDS011;37801;53.224;6.552;2023-09-12T03:54:30;32.90;;;24.88;;
51724;SDS011;37801;53.224;6.552;2023-09-12T03:56:56;36.08;;;25.13;;
51724;SDS011;37801;53.224;6.552;2023-09-12T03:59:23;35.38;;;25.48;;
51724;SDS011;37801;53.224;6.552;2023-09-12T04:01:49;36.50;;;26.10;;
51724;SDS011;37801;53.224;6.552;2023-09-12T04:04:15;34.22;;;25.30;;
51724;SDS011;37801;53.224;6.552;2023-09-12T04:06:41;33.35;;;25.90;;
51724;SDS011;37801;53.224;6.552;2023-09-12T04:09:07;35.60;;;25.45;;
51724;SDS011;37801;53.224;6.552;2023-09-12T04:11:33;35.15;;;25.77;;
51724;SDS011;37801;53.224;6.552;2023-09-12T04:14:00;35.95;;;26.45;;
51724;SDS011;37801;53.224;6.552;2023-09-12T04:16:26;35.60;;;27.20;;
51724;SDS011;37801;53.224;6.552;2023-09-12T04:19:13;33.97;;;25.55;;
51724;SDS011;37801;53.224;6.552;2023-09-12T04:21:59;36.03;;;25.50;;
51724;SDS011;37801;53.224;6.552;2023-09-12T04:24:45;34.25;;;26.15;;
51724;SDS011;37801;53.224;6.552;2023-09-12T04:27:32;34.65;;;25.60;;
51724;SDS011;37801;53.224;6.552;2023-09-12T04:30:18;34.67;;;25.85;;
51724;SDS011;37801;53.224;6.552;2023-09-12T04:33:04;31.88;;;25.33;;
51724;SDS011;37801;53.224;6.552;2023-09-12T04:35:50;34.80;;;25.88;;
51724;SDS011;37801;53.224;6.552;2023-09-12T04:38:36;36.30;;;25.77;;
51724;SDS011;37801;53.224;6.552;2023-09-12T04:41:22;37.53;;;27.15;;
51724;SDS011;37801;53.224;6.552;2023-09-12T04:44:08;33.40;;;25.40;;
51724;SDS011;37801;53.224;6.552;2023-09-12T04:46:54;32.75;;;24.98;;
51724;SDS011;37801;53.224;6.552;2023-09-12T04:49:41;38.78;;;27.88;;
51724;SDS011;37801;53.224;6.552;2023-09-12T04:52:27;37.35;;;28.10;;
51724;SDS011;37801;53.224;6.552;2023-09-12T04:55:26;34.00;;;25.15;;
51724;SDS011;37801;53.224;6.552;2023-09-12T04:58:12;38.03;;;26.35;;
51724;SDS011;37801;53.224;6.552;2023-09-12T05:00:58;34.33;;;26.60;;
51724;SDS011;37801;53.224;6.552;2023-09-12T05:03:44;37.58;;;27.27;;
51724;SDS011;37801;53.224;6.552;2023-09-12T05:06:30;35.50;;;26.27;;
51724;SDS011;37801;53.224;6.552;2023-09-12T05:09:16;34.17;;;26.83;;
51724;SDS011;37801;53.224;6.552;2023-09-12T05:12:02;38.13;;;27.13;;
51724;SDS011;37801;53.224;6.552;2023-09-12T05:14:48;38.47;;;27.65;;
51724;SDS011;37801;53.224;6.552;2023-09-12T05:17:34;39.28;;;28.60;;
51724;SDS011;37801;53.224;6.552;2023-09-12T05:20:20;37.38;;;27.65;;
51724;SDS011;37801;53.224;6.552;2023-09-12T05:23:07;34.10;;;26.02;;
51724;SDS011;37801;53.224;6.552;2023-09-12T05:25:53;36.20;;;26.67;;
51724;SDS011;37801;53.224;6.552;2023-09-12T05:28:39;34.83;;;25.77;;
51724;SDS011;37801;53.224;6.552;2023-09-12T05:31:25;34.72;;;25.17;;
51724;SDS011;37801;53.224;6.552;2023-09-12T05:34:11;32.38;;;25.23;;
51724;SDS011;37801;53.224;6.552;2023-09-12T05:36:57;34.95;;;26.55;;
51724;SDS011;37801;53.224;6.552;2023-09-12T05:39:43;35.70;;;27.52;;
51724;SDS011;37801;53.224;6.552;2023-09-12T05:42:29;36.13;;;26.23;;
51724;SDS011;37801;53.224;6.552;2023-09-12T05:45:15;37.10;;;26.55;;
51724;SDS011;37801;53.224;6.552;2023-09-12T05:48:01;43.47;;;28.27;;
51724;SDS011;37801;53.224;6.552;2023-09-12T05:50:47;38.03;;;26.80;;
51724;SDS011;37801;53.224;6.552;2023-09-12T05:53:37;41.58;;;28.40;;
51724;SDS011;37801;53.224;6.552;2023-09-12T05:56:23;40.45;;;28.85;;
51724;SDS011;37801;53.224;6.552;2023-09-12T05:59:09;42.25;;;28.98;;
51724;SDS011;37801;53.224;6.552;2023-09-12T06:01:55;40.17;;;27.63;;
51724;SDS011;37801;53.224;6.552;2023-09-12T06:04:41;40.00;;;28.35;;
51724;SDS011;37801;53.224;6.552;2023-09-12T06:07:27;38.75;;;27.40;;
51724;SDS011;37801;53.224;6.552;2023-09-12T06:10:13;41.63;;;28.42;;
51724;SDS011;37801;53.224;6.552;2023-09-12T06:12:59;40.42;;;28.00;;
51724;SDS011;37801;53.224;6.552;2023-09-12T06:15:45;38.20;;;28.15;;
51724;SDS011;37801;53.224;6.552;2023-09-12T06:18:32;41.78;;;28.90;;
51724;SDS011;37801;53.224;6.552;2023-09-12T06:20:59;41.70;;;28.23;;
51724;SDS011;37801;53.224;6.552;2023-09-12T06:23:32;43.70;;;29.42;;
51724;SDS011;37801;53.224;6.552;2023-09-12T06:25:58;55.40;;;33.95;;
51724;SDS011;37801;53.224;6.552;2023-09-12T06:28:28;57.55;;;35.00;;
51724;SDS011;37801;53.224;6.552;2023-09-12T06:30:55;53.58;;;33.88;;
51724;SDS011;37801;53.224;6.552;2023-09-12T06:33:25;55.72;;;33.00;;
51724;SDS011;37801;53.224;6.552;2023-09-12T06:35:51;61.97;;;34.88;;
51724;SDS011;37801;53.224;6.552;2023-09-12T06:38:18;60.72;;;34.13;;
51724;SDS011;37801;53.224;6.552;2023-09-12T06:40:45;62.83;;;33.58;;
51724;SDS011;37801;53.224;6.552;2023-09-12T06:43:14;65.45;;;32.58;;
51724;SDS011;37801;53.224;6.552;2023-09-12T06:45:40;60.60;;;32.75;;
51724;SDS011;37801;53.224;6.552;2023-09-12T06:48:07;68.65;;;36.30;;
51724;SDS011;37801;53.224;6.552;2023-09-12T06:50:54;63.85;;;35.30;;
51724;SDS011;37801;53.224;6.552;2023-09-12T06:53:40;59.47;;;33.33;;
51724;SDS011;37801;53.224;6.552;2023-09-12T06:56:26;59.08;;;32.42;;
51724;SDS011;37801;53.224;6.552;2023-09-12T06:59:12;57.08;;;32.38;;
51724;SDS011;37801;53.224;6.552;2023-09-12T07:01:58;57.22;;;33.08;;
51724;SDS011;37801;53.224;6.552;2023-09-12T07:04:44;56.75;;;32.33;;
51724;SDS011;37801;53.224;6.552;2023-09-12T07:07:30;61.88;;;34.70;;
51724;SDS011;37801;53.224;6.552;2023-09-12T07:10:16;55.25;;;32.80;;
51724;SDS011;37801;53.224;6.552;2023-09-12T07:13:02;51.88;;;31.60;;
51724;SDS011;37801;53.224;6.552;2023-09-12T07:15:29;52.90;;;32.00;;
51724;SDS011;37801;53.224;6.552;2023-09-12T07:17:55;52.78;;;33.13;;
51724;SDS011;37801;53.224;6.552;2023-09-12T07:20:21;52.35;;;32.78;;
51724;SDS011;37801;53.224;6.552;2023-09-12T07:22:48;56.75;;;33.78;;
51724;SDS011;37801;53.224;6.552;2023-09-12T07:25:15;55.08;;;32.85;;
51724;SDS011;37801;53.224;6.552;2023-09-12T07:27:41;52.40;;;32.00;;
51724;SDS011;37801;53.224;6.552;2023-09-12T07:30:08;55.00;;;33.25;;
51724;SDS011;37801;53.224;6.552;2023-09-12T07:32:34;53.30;;;32.08;;
51724;SDS011;37801;53.224;6.552;2023-09-12T07:35:00;52.47;;;32.78;;
51724;SDS011;37801;53.224;6.552;2023-09-12T07:37:26;58.22;;;34.85;;
51724;SDS011;37801;53.224;6.552;2023-09-12T07:39:52;59.45;;;35.47;;
51724;SDS011;37801;53.224;6.552;2023-09-12T07:42:22;58.33;;;35.13;;
51724;SDS011;37801;53.224;6.552;2023-09-12T07:44:48;59.17;;;37.08;;
51724;SDS011;37801;53.224;6.552;2023-09-12T07:47:14;57.95;;;35.38;;
51724;SDS011;37801;53.224;6.552;2023-09-12T07:49:41;59.03;;;34.97;;
51724;SDS011;37801;53.224;6.552;2023-09-12T07:52:07;55.47;;;33.97;;
51724;SDS011;37801;53.224;6.552;2023-09-12T07:54:33;57.55;;;34.88;;
51724;SDS011;37801;53.224;6.552;2023-09-12T07:57:19;59.20;;;34.92;;
51724;SDS011;37801;53.224;6.552;2023-09-12T08:00:08;51.83;;;34.42;;
51724;SDS011;37801;53.224;6.552;2023-09-12T08:02:54;53.38;;;33.13;;
51724;SDS011;37801;53.224;6.552;2023-09-12T08:05:41;58.25;;;36.92;;
51724;SDS011;37801;53.224;6.552;2023-09-12T08:08:27;55.35;;;35.03;;
51724;SDS011;37801;53.224;6.552;2023-09-12T08:11:13;60.58;;;36.50;;
51724;SDS011;37801;53.224;6.552;2023-09-12T08:13:59;55.83;;;35.35;;
51724;SDS011;37801;53.224;6.552;2023-09-12T08:16:45;54.90;;;35.42;;
51724;SDS011;37801;53.224;6.552;2023-09-12T08:19:31;47.10;;;33.35;;
51724;SDS011;37801;53.224;6.552;2023-09-12T08:22:18;57.72;;;34.20;;
51724;SDS011;37801;53.224;6.552;2023-09-12T08:25:04;51.25;;;32.97;;
51724;SDS011;37801;53.224;6.552;2023-09-12T08:27:50;57.08;;;34.78;;
51724;SDS011;37801;53.224;6.552;2023-09-12T08:30:36;51.47;;;32.50;;
51724;SDS011;37801;53.224;6.552;2023-09-12T08:33:22;53.78;;;34.38;;
51724;SDS011;37801;53.224;6.552;2023-09-12T08:36:08;55.15;;;34.28;;
51724;SDS011;37801;53.224;6.552;2023-09-12T08:38:54;52.22;;;32.55;;
51724;SDS011;37801;53.224;6.552;2023-09-12T08:41:40;50.05;;;32.00;;
51724;SDS011;37801;53.224;6.552;2023-09-12T08:44:27;51.72;;;32.78;;
51724;SDS011;37801;53.224;6.552;2023-09-12T08:47:13;54.13;;;33.03;;
51724;SDS011;37801;53.224;6.552;2023-09-12T08:49:59;50.65;;;32.08;;
51724;SDS011;37801;53.224;6.552;2023-09-12T08:52:46;51.58;;;31.52;;
51724;SDS011;37801;53.224;6.552;2023-09-12T08:55:33;50.40;;;32.28;;
51724;SDS011;37801;53.224;6.552;2023-09-12T08:58:22;51.55;;;32.33;;
51724;SDS011;37801;53.224;6.552;2023-09-12T09:01:08;49.30;;;31.42;;
51724;SDS011;37801;53.224;6.552;2023-09-12T09:03:55;48.22;;;31.50;;
51724;SDS011;37801;53.224;6.552;2023-09-12T09:06:41;46.67;;;30.50;;
51724;SDS011;37801;53.224;6.552;2023-09-12T09:09:28;52.83;;;32.40;;
51724;SDS011;37801;53.224;6.552;2023-09-12T09:12:14;49.63;;;31.35;;
51724;SDS011;37801;53.224;6.552;2023-09-12T09:18:05;44.60;;;29.35;;
51724;SDS011;37801;53.224;6.552;2023-09-12T09:20:51;46.88;;;29.08;;
51724;SDS011;37801;53.224;6.552;2023-09-12T09:23:44;45.40;;;29.42;;
51724;SDS011;37801;53.224;6.552;2023-09-12T09:26:43;46.95;;;30.45;;
51724;SDS011;37801;53.224;6.552;2023-09-12T09:29:29;46.25;;;30.33;;
51724;SDS011;37801;53.224;6.552;2023-09-12T09:32:02;47.08;;;30.58;;
51724;SDS011;37801;53.224;6.552;2023-09-12T09:34:30;49.13;;;32.15;;
51724;SDS011;37801;53.224;6.552;2023-09-12T09:36:57;48.75;;;31.80;;
51724;SDS011;37801;53.224;6.552;2023-09-12T09:39:24;50.67;;;33.00;;
51724;SDS011;37801;53.224;6.552;2023-09-12T09:41:52;49.65;;;32.45;;
51724;SDS011;37801;53.224;6.552;2023-09-12T09:44:18;47.38;;;31.25;;
51724;SDS011;37801;53.224;6.552;2023-09-12T09:46:45;48.25;;;32.00;;
51724;SDS011;37801;53.224;6.552;2023-09-12T09:49:15;52.47;;;32.72;;
51724;SDS011;37801;53.224;6.552;2023-09-12T09:51:43;47.45;;;30.83;;
51724;SDS011;37801;53.224;6.552;2023-09-12T09:54:09;50.30;;;31.45;;
51724;SDS011;37801;53.224;6.552;2023-09-12T09:56:48;51.80;;;34.38;;
51724;SDS011;37801;53.224;6.552;2023-09-12T09:59:15;50.88;;;32.17;;
51724;SDS011;37801;53.224;6.552;2023-09-12T10:01:43;49.70;;;32.25;;
51724;SDS011;37801;53.224;6.552;2023-09-12T10:04:09;52.50;;;32.60;;
51724;SDS011;37801;53.224;6.552;2023-09-12T10:06:36;50.42;;;33.65;;
51724;SDS011;37801;53.224;6.552;2023-09-12T10:09:06;51.92;;;33.15;;
51724;SDS011;37801;53.224;6.552;2023-09-12T10:11:33;51.28;;;33.15;;
51724;SDS011;37801;53.224;6.552;2023-09-12T10:14:04;49.55;;;32.38;;
51724;SDS011;37801;53.224;6.552;2023-09-12T10:16:31;52.60;;;33.72;;
51724;SDS011;37801;53.224;6.552;2023-09-12T10:19:15;52.15;;;33.80;;
51724;SDS011;37801;53.224;6.552;2023-09-12T10:21:46;51.80;;;32.75;;
51724;SDS011;37801;53.224;6.552;2023-09-12T10:24:14;51.07;;;34.33;;
51724;SDS011;37801;53.224;6.552;2023-09-12T10:26:41;48.42;;;32.30;;
51724;SDS011;37801;53.224;6.552;2023-09-12T10:29:10;50.25;;;32.80;;
51724;SDS011;37801;53.224;6.552;2023-09-12T10:31:36;51.50;;;32.65;;
51724;SDS011;37801;53.224;6.552;2023-09-12T10:34:02;46.03;;;30.42;;
51724;SDS011;37801;53.224;6.552;2023-09-12T10:36:31;43.92;;;31.27;;
51724;SDS011;37801;53.224;6.552;2023-09-12T10:38:58;46.65;;;30.73;;
51724;SDS011;37801;53.224;6.552;2023-09-12T10:41:25;45.60;;;30.55;;
51724;SDS011;37801;53.224;6.552;2023-09-12T10:43:52;45.47;;;30.35;;
51724;SDS011;37801;53.224;6.552;2023-09-12T10:46:19;44.83;;;29.77;;
51724;SDS011;37801;53.224;6.552;2023-09-12T10:48:46;45.75;;;31.67;;
51724;SDS011;37801;53.224;6.552;2023-09-12T10:51:13;48.22;;;31.10;;
51724;SDS011;37801;53.224;6.552;2023-09-12T10:53:45;46.30;;;30.15;;
51724;SDS011;37801;53.224;6.552;2023-09-12T10:56:14;42.80;;;29.23;;
51724;SDS011;37801;53.224;6.552;2023-09-12T11:01:26;41.10;;;28.48;;
51724;SDS011;37801;53.224;6.552;2023-09-12T11:03:53;37.95;;;27.83;;
51724;SDS011;37801;53.224;6.552;2023-09-12T11:06:19;41.50;;;28.70;;
51724;SDS011;37801;53.224;6.552;2023-09-12T11:09:15;42.40;;;29.27;;
51724;SDS011;37801;53.224;6.552;2023-09-12T11:15:02;44.67;;;29.10;;
51724;SDS011;37801;53.224;6.552;2023-09-12T11:17:45;43.72;;;28.35;;
51724;SDS011;37801;53.224;6.552;2023-09-12T11:23:37;41.25;;;27.23;;
51724;SDS011;37801;53.224;6.552;2023-09-12T11:26:23;36.78;;;25.45;;
51724;SDS011;37801;53.224;6.552;2023-09-12T11:29:10;38.75;;;25.73;;
51724;SDS011;37801;53.224;6.552;2023-09-12T11:31:58;36.92;;;24.83;;
51724;SDS011;37801;53.224;6.552;2023-09-12T11:34:44;37.92;;;25.90;;
51724;SDS011;37801;53.224;6.552;2023-09-12T11:37:30;36.75;;;25.38;;
51724;SDS011;37801;53.224;6.552;2023-09-12T11:40:21;35.35;;;24.27;;
51724;SDS011;37801;53.224;6.552;2023-09-12T11:43:24;34.35;;;23.77;;
51724;SDS011;37801;53.224;6.552;2023-09-12T11:46:10;35.47;;;23.90;;
51724;SDS011;37801;53.224;6.552;2023-09-12T11:48:56;32.55;;;22.50;;
51724;SDS011;37801;53.224;6.552;2023-09-12T11:51:52;36.63;;;25.38;;
51724;SDS011;37801;53.224;6.552;2023-09-12T11:54:39;34.67;;;23.92;;
51724;SDS011;37801;53.224;6.552;2023-09-12T11:57:25;36.17;;;24.90;;
51724;SDS011;37801;53.224;6.552;2023-09-12T12:00:12;37.40;;;25.55;;
51724;SDS011;37801;53.224;6.552;2023-09-12T12:02:59;34.25;;;23.42;;
51724;SDS011;37801;53.224;6.552;2023-09-12T12:05:45;28.52;;;19.55;;
51724;SDS011;37801;53.224;6.552;2023-09-12T12:08:31;31.40;;;21.58;;
51724;SDS011;37801;53.224;6.552;2023-09-12T12:11:18;30.88;;;20.65;;
51724;SDS011;37801;53.224;6.552;2023-09-12T12:14:11;27.60;;;18.73;;
51724;SDS011;37801;53.224;6.552;2023-09-12T12:16:57;28.33;;;19.60;;
51724;SDS011;37801;53.224;6.552;2023-09-12T12:19:50;28.92;;;19.30;;
51724;SDS011;37801;53.224;6.552;2023-09-12T12:22:37;35.38;;;22.83;;
51724;SDS011;37801;53.224;6.552;2023-09-12T12:25:23;33.97;;;23.23;;
51724;SDS011;37801;53.224;6.552;2023-09-12T12:28:10;30.67;;;21.20;;
51724;SDS011;37801;53.224;6.552;2023-09-12T12:30:56;32.78;;;22.30;;
51724;SDS011;37801;53.224;6.552;2023-09-12T12:33:47;29.70;;;20.98;;
51724;SDS011;37801;53.224;6.552;2023-09-12T12:36:40;30.55;;;21.42;;
51724;SDS011;37801;53.224;6.552;2023-09-12T12:39:26;33.60;;;22.27;;
51724;SDS011;37801;53.224;6.552;2023-09-12T12:42:12;31.85;;;22.45;;
51724;SDS011;37801;53.224;6.552;2023-09-12T12:44:58;29.33;;;18.05;;
51724;SDS011;37801;53.224;6.552;2023-09-12T12:47:45;22.65;;;13.85;;
51724;SDS011;37801;53.224;6.552;2023-09-12T12:50:34;17.60;;;11.00;;
51724;SDS011;37801;53.224;6.552;2023-09-12T12:53:37;15.45;;;10.68;;
51724;SDS011;37801;53.224;6.552;2023-09-12T12:56:25;13.88;;;9.77;;
51724;SDS011;37801;53.224;6.552;2023-09-12T12:59:12;17.83;;;10.55;;
51724;SDS011;37801;53.224;6.552;2023-09-12T13:01:58;15.65;;;11.23;;
51724;SDS011;37801;53.224;6.552;2023-09-12T13:04:44;19.02;;;12.27;;
51724;SDS011;37801;53.224;6.552;2023-09-12T13:07:30;20.50;;;12.95;;
51724;SDS011;37801;53.224;6.552;2023-09-12T13:10:17;17.73;;;13.13;;
51724;SDS011;37801;53.224;6.552;2023-09-12T13:13:03;21.52;;;14.25;;
51724;SDS011;37801;53.224;6.552;2023-09-12T13:15:49;17.90;;;13.48;;
51724;SDS011;37801;53.224;6.552;2023-09-12T13:18:36;19.45;;;14.38;;
51724;SDS011;37801;53.224;6.552;2023-09-12T13:21:22;20.88;;;15.15;;
51724;SDS011;37801;53.224;6.552;2023-09-12T13:24:08;24.58;;;16.58;;
51724;SDS011;37801;53.224;6.552;2023-09-12T13:26:55;23.58;;;16.33;;
51724;SDS011;37801;53.224;6.552;2023-09-12T13:29:41;20.38;;;14.90;;
51724;SDS011;37801;53.224;6.552;2023-09-12T13:32:27;18.42;;;14.38;;
51724;SDS011;37801;53.224;6.552;2023-09-12T13:35:13;17.75;;;13.68;;
51724;SDS011;37801;53.224;6.552;2023-09-12T13:37:59;17.73;;;14.57;;
51724;SDS011;37801;53.224;6.552;2023-09-12T13:40:46;20.02;;;14.98;;
51724;SDS011;37801;53.224;6.552;2023-09-12T13:43:32;18.48;;;13.93;;
51724;SDS011;37801;53.224;6.552;2023-09-12T13:46:18;17.70;;;13.38;;
51724;SDS011;37801;53.224;6.552;2023-09-12T13:49:04;17.92;;;14.35;;
51724;SDS011;37801;53.224;6.552;2023-09-12T13:51:51;18.98;;;14.57;;
51724;SDS011;37801;53.224;6.552;2023-09-12T13:54:37;18.45;;;13.05;;
51724;SDS011;37801;53.224;6.552;2023-09-12T13:57:23;14.80;;;12.05;;
51724;SDS011;37801;53.224;6.552;2023-09-12T14:00:09;17.63;;;12.98;;
51724;SDS011;37801;53.224;6.552;2023-09-12T14:02:55;15.80;;;12.10;;
51724;SDS011;37801;53.224;6.552;2023-09-12T14:05:41;22.75;;;12.82;;
51724;SDS011;37801;53.224;6.552;2023-09-12T14:08:28;18.23;;;13.05;;
51724;SDS011;37801;53.224;6.552;2023-09-12T14:10:54;15.00;;;12.52;;
51724;SDS011;37801;53.224;6.552;2023-09-12T14:13:20;17.80;;;11.93;;
51724;SDS011;37801;53.224;6.552;2023-09-12T14:15:46;12.43;;;10.02;;
51724;SDS011;37801;53.224;6.552;2023-09-12T14:18:14;12.23;;;9.13;;
51724;SDS011;37801;53.224;6.552;2023-09-12T14:20:41;13.88;;;9.07;;
51724;SDS011;37801;53.224;6.552;2023-09-12T14:23:07;10.10;;;8.15;;
51724;SDS011;37801;53.224;6.552;2023-09-12T14:25:33;10.93;;;9.02;;
51724;SDS011;37801;53.224;6.552;2023-09-12T14:27:59;10.95;;;8.52;;
51724;SDS011;37801;53.224;6.552;2023-09-12T14:30:25;13.10;;;8.73;;
51724;SDS011;37801;53.224;6.552;2023-09-12T14:32:59;14.02;;;8.88;;
51724;SDS011;37801;53.224;6.552;2023-09-12T14:35:25;10.82;;;9.38;;
51724;SDS011;37801;53.224;6.552;2023-09-12T14:37:51;12.82;;;9.80;;
51724;SDS011;37801;53.224;6.552;2023-09-12T14:40:17;12.68;;;9.93;;
51724;SDS011;37801;53.224;6.552;2023-09-12T14:42:43;13.90;;;9.98;;
51724;SDS011;37801;53.224;6.552;2023-09-12T14:45:10;12.68;;;9.57;;
51724;SDS011;37801;53.224;6.552;2023-09-12T14:47:36;12.27;;;9.45;;
51724;SDS011;37801;53.224;6.552;2023-09-12T14:50:02;15.30;;;9.50;;
51724;SDS011;37801;53.224;6.552;2023-09-12T14:52:29;13.75;;;10.43;;
51724;SDS011;37801;53.224;6.552;2023-09-12T14:54:56;13.55;;;10.70;;
51724;SDS011;37801;53.224;6.552;2023-09-12T14:57:23;12.80;;;9.23;;
51724;SDS011;37801;53.224;6.552;2023-09-12T14:59:50;13.48;;;9.73;;
51724;SDS011;37801;53.224;6.552;2023-09-12T15:02:16;13.02;;;8.20;;
51724;SDS011;37801;53.224;6.552;2023-09-12T15:04:42;12.15;;;8.15;;
51724;SDS011;37801;53.224;6.552;2023-09-12T15:07:08;13.88;;;7.53;;
51724;SDS011;37801;53.224;6.552;2023-09-12T15:09:54;10.38;;;6.55;;
51724;SDS011;37801;53.224;6.552;2023-09-12T15:12:41;10.30;;;6.10;;
51724;SDS011;37801;53.224;6.552;2023-09-12T15:15:27;11.13;;;6.95;;
51724;SDS011;37801;53.224;6.552;2023-09-12T15:18:13;9.38;;;6.00;;
51724;SDS011;37801;53.224;6.552;2023-09-12T15:20:59;10.05;;;6.05;;
51724;SDS011;37801;53.224;6.552;2023-09-12T15:23:45;9.52;;;5.40;;
51724;SDS011;37801;53.224;6.552;2023-09-12T15:26:31;9.18;;;5.47;;
51724;SDS011;37801;53.224;6.552;2023-09-12T15:29:17;8.63;;;5.50;;
51724;SDS011;37801;53.224;6.552;2023-09-12T15:32:03;8.00;;;4.78;;
51724;SDS011;37801;53.224;6.552;2023-09-12T15:34:50;6.47;;;4.60;;
51724;SDS011;37801;53.224;6.552;2023-09-12T15:37:36;8.40;;;5.32;;
51724;SDS011;37801;53.224;6.552;2023-09-12T15:40:22;10.02;;;4.63;;
51724;SDS011;37801;53.224;6.552;2023-09-12T15:43:08;8.70;;;4.70;;
51724;SDS011;37801;53.224;6.552;2023-09-12T15:45:34;8.85;;;4.97;;
51724;SDS011;37801;53.224;6.552;2023-09-12T15:48:00;7.93;;;5.00;;
51724;SDS011;37801;53.224;6.552;2023-09-12T15:50:29;8.27;;;5.00;;
51724;SDS011;37801;53.224;6.552;2023-09-12T15:52:56;6.60;;;4.35;;